createdAt,value
2022-10-01T00:01:00.858Z,76.72
2022-10-01T00:06:06.701Z,76.70
2022-10-01T00:11:12.577Z,76.62
2022-10-01T00:16:19.327Z,76.26
2022-10-01T00:21:26.837Z,76.22
2022-10-01T00:26:32.693Z,75.63
2022-10-01T00:31:38.269Z,76.10
2022-10-01T00:36:42.336Z,76.32
2022-10-01T00:41:46.575Z,75.86
2022-10-01T00:46:52.788Z,75.66
2022-10-01T00:52:01.262Z,75.51
2022-10-01T00:57:08.283Z,75.28
2022-10-01T01:02:13.509Z,75.76
2022-10-01T01:07:17.823Z,75.88
2022-10-01T01:12:35.203Z,76.32
2022-10-01T01:17:50.882Z,76.24
2022-10-01T01:23:06.455Z,75.78
2022-10-01T01:28:22.944Z,75.58
2022-10-01T01:33:31.012Z,74.76
2022-10-01T01:38:38.834Z,74.88
2022-10-01T01:43:47.243Z,75.40
2022-10-01T01:48:53.448Z,75.75
2022-10-01T01:53:57.178Z,76.32
2022-10-01T01:59:03.387Z,75.29
2022-10-01T02:04:10.730Z,75.74
2022-10-01T02:09:26.294Z,75.47
2022-10-01T02:14:39.098Z,76.32
2022-10-01T02:19:51.493Z,75.81
2022-10-01T02:24:59.676Z,76.67
2022-10-01T02:30:08.499Z,76.72
2022-10-01T02:35:15.676Z,76.72
2022-10-01T02:40:24.006Z,75.60
2022-10-01T02:45:32.343Z,76.35
2022-10-01T02:50:45.065Z,76.95
2022-10-01T02:55:49.838Z,76.24
2022-10-01T03:00:54.679Z,76.21
2022-10-01T03:05:58.021Z,76.72
2022-10-01T03:11:01.421Z,76.87
2022-10-01T03:16:06.280Z,75.74
2022-10-01T03:21:09.855Z,75.64
2022-10-01T03:26:13.249Z,75.95
2022-10-01T03:31:18.038Z,75.77
2022-10-01T03:36:21.828Z,76.08
2022-10-01T03:41:25.308Z,76.05
2022-10-01T03:46:30.612Z,76.69
2022-10-01T03:51:37.571Z,75.79
2022-10-01T03:56:42.751Z,76.40
2022-10-01T04:01:47.894Z,75.67
2022-10-01T04:06:51.376Z,75.07
2022-10-01T04:11:54.885Z,76.06
2022-10-01T04:16:59.845Z,75.81
2022-10-01T04:22:03.252Z,76.38
2022-10-01T04:27:06.641Z,76.00
2022-10-01T04:32:11.509Z,76.35
2022-10-01T04:37:15.459Z,77.13
2022-10-01T04:42:19.163Z,77.02
2022-10-01T04:47:24.280Z,77.57
2022-10-01T04:52:27.707Z,77.52
2022-10-01T04:57:31.144Z,77.67
2022-10-01T05:02:36.168Z,78.04
2022-10-01T05:07:41.161Z,77.39
2022-10-01T05:12:46.349Z,77.10
2022-10-01T05:17:51.123Z,75.50
2022-10-01T05:22:56.489Z,73.84
2022-10-01T05:28:05.471Z,73.09
2022-10-01T05:33:10.355Z,73.80
2022-10-01T05:38:13.779Z,77.26
2022-10-01T05:43:18.727Z,76.52
2022-10-01T05:48:23.688Z,76.61
2022-10-01T05:53:27.606Z,76.90
2022-10-01T05:58:31.396Z,76.31
2022-10-01T06:03:36.443Z,73.85
2022-10-01T06:08:39.802Z,72.99
2022-10-01T06:13:46.666Z,71.56
2022-10-01T06:18:57.496Z,72.44
2022-10-01T06:24:19.375Z,70.86
2022-10-01T06:29:51.173Z,67.42
2022-10-01T06:34:56.410Z,68.67
2022-10-01T06:40:00.101Z,67.78
2022-10-01T06:45:03.561Z,65.87
2022-10-01T06:50:09.759Z,64.93
2022-10-01T06:55:16.684Z,61.88
2022-10-01T07:00:20.601Z,61.02
2022-10-01T07:05:26.285Z,61.03
2022-10-01T07:10:30.114Z,59.53
2022-10-01T07:15:33.502Z,59.58
2022-10-01T07:20:39.917Z,57.36
2022-10-01T07:25:44.327Z,53.64
2022-10-01T07:30:59.430Z,53.66
2022-10-01T07:36:06.681Z,52.74
2022-10-01T07:41:11.017Z,52.75
2022-10-01T07:46:14.500Z,52.22
2022-10-01T07:51:19.613Z,52.65
2022-10-01T07:56:23.369Z,50.72
2022-10-01T08:01:27.014Z,50.56
2022-10-01T08:06:31.822Z,51.39
2022-10-01T08:11:38.143Z,50.34
2022-10-01T08:16:42.246Z,48.55
2022-10-01T08:21:47.095Z,47.69
2022-10-01T08:26:56.107Z,47.54
2022-10-01T08:31:59.722Z,47.32
2022-10-01T08:37:04.682Z,47.28
2022-10-01T08:42:22.783Z,46.24
2022-10-01T08:47:35.073Z,47.16
2022-10-01T08:52:44.456Z,46.76
2022-10-01T08:57:53.230Z,44.87
2022-10-01T09:03:00.473Z,46.46
2022-10-01T09:08:20.033Z,44.08
2022-10-01T09:13:50.440Z,44.20
2022-10-01T09:19:11.240Z,44.65
2022-10-01T09:24:17.945Z,43.56
2022-10-01T09:29:26.129Z,44.98
2022-10-01T09:34:37.790Z,44.88
2022-10-01T09:39:49.190Z,42.92
2022-10-01T09:44:53.982Z,43.31
2022-10-01T09:50:01.833Z,42.10
2022-10-01T09:55:21.099Z,41.93
2022-10-01T10:00:26.423Z,42.82
2022-10-01T10:05:31.917Z,42.81
2022-10-01T10:10:39.649Z,43.50
2022-10-01T10:15:51.626Z,43.05
2022-10-01T10:20:56.330Z,43.64
2022-10-01T10:26:02.980Z,43.66
2022-10-01T10:31:12.595Z,41.96
2022-10-01T10:36:17.216Z,42.49
2022-10-01T10:41:26.559Z,42.75
2022-10-01T10:46:32.750Z,43.09
2022-10-01T10:51:48.765Z,43.35
2022-10-01T10:57:02.604Z,41.93
2022-10-01T11:02:16.192Z,42.66
2022-10-01T11:07:22.949Z,41.99
2022-10-01T11:12:41.206Z,41.97
2022-10-01T11:18:09.477Z,42.70
2022-10-01T11:23:45.816Z,44.71
2022-10-01T11:29:08.026Z,44.98
2022-10-01T11:34:28.579Z,43.79
2022-10-01T11:39:35.115Z,42.19
2022-10-01T11:44:46.488Z,41.67
2022-10-01T11:49:58.312Z,43.78
2022-10-01T11:55:31.353Z,43.07
2022-10-01T12:00:38.844Z,42.48
2022-10-01T12:05:43.999Z,43.73
2022-10-01T12:10:55.143Z,43.97
2022-10-01T12:16:08.020Z,45.37
2022-10-01T12:21:22.365Z,45.08
2022-10-01T12:26:45.831Z,44.74
2022-10-01T12:32:07.596Z,44.79
2022-10-01T12:37:28.421Z,45.90
2022-10-01T12:42:48.329Z,47.06
2022-10-01T12:47:58.749Z,47.44
2022-10-01T12:53:20.655Z,48.18
2022-10-01T12:58:42.033Z,47.66
2022-10-01T13:04:17.342Z,47.56
2022-10-01T13:09:30.499Z,48.23
2022-10-01T13:14:35.603Z,48.60
2022-10-01T13:19:46.932Z,48.19
2022-10-01T13:25:00.970Z,48.79
2022-10-01T13:30:07.745Z,49.08
2022-10-01T13:35:31.611Z,50.12
2022-10-01T13:41:00.326Z,50.77
2022-10-01T13:46:14.411Z,50.58
2022-10-01T13:51:23.246Z,50.83
2022-10-01T13:56:35.314Z,50.17
2022-10-01T14:01:43.411Z,50.82
2022-10-01T14:06:54.945Z,49.39
2022-10-01T14:12:23.240Z,50.81
2022-10-01T14:17:29.251Z,49.91
2022-10-01T14:22:46.429Z,51.24
2022-10-01T14:28:06.247Z,51.13
2022-10-01T14:33:39.225Z,52.07
2022-10-01T14:38:44.386Z,52.16
2022-10-01T14:43:48.347Z,52.82
2022-10-01T14:49:00.787Z,52.83
2022-10-01T14:54:05.732Z,54.47
2022-10-01T14:59:17.206Z,54.49
2022-10-01T15:04:22.707Z,55.08
2022-10-01T15:09:34.739Z,55.55
2022-10-01T15:14:38.594Z,57.13
2022-10-01T15:19:47.107Z,57.22
2022-10-01T15:24:54.536Z,57.86
2022-10-01T15:29:59.894Z,57.93
2022-10-01T15:35:03.784Z,58.84
2022-10-01T15:40:21.244Z,58.90
2022-10-01T15:45:26.538Z,59.92
2022-10-01T15:50:32.481Z,60.33
2022-10-01T15:55:42.557Z,60.72
2022-10-01T16:01:00.007Z,60.71
2022-10-01T16:06:05.325Z,61.28
2022-10-01T16:11:27.760Z,61.57
2022-10-01T16:16:31.688Z,61.63
2022-10-01T16:21:41.715Z,62.02
2022-10-01T16:26:48.217Z,61.17
2022-10-01T16:31:52.118Z,62.27
2022-10-01T16:36:55.636Z,62.48
2022-10-01T16:42:22.796Z,62.98
2022-10-01T16:47:25.084Z,62.92
2022-10-01T16:52:29.374Z,62.93
2022-10-01T16:57:34.164Z,63.46
2022-10-01T17:02:37.547Z,63.27
2022-10-01T17:07:41.219Z,63.65
2022-10-01T17:12:47.867Z,64.59
2022-10-01T17:17:51.269Z,64.35
2022-10-01T17:22:54.796Z,64.33
2022-10-01T17:28:00.058Z,64.64
2022-10-01T17:33:03.832Z,65.35
2022-10-01T17:38:07.218Z,65.88
2022-10-01T17:43:13.601Z,65.90
2022-10-01T17:48:19.945Z,65.82
2022-10-01T17:53:29.600Z,65.97
2022-10-01T17:58:40.630Z,66.43
2022-10-01T18:03:47.818Z,66.33
2022-10-01T18:08:55.613Z,66.88
2022-10-01T18:14:01.560Z,66.73
2022-10-01T18:19:52.243Z,67.65
2022-10-01T18:24:29.634Z,68.10
2022-10-01T18:29:35.193Z,68.79
2022-10-01T18:34:43.073Z,69.26
2022-10-01T18:39:51.001Z,69.15
2022-10-01T18:44:59.101Z,69.17
2022-10-01T18:50:19.122Z,68.79
2022-10-01T18:55:56.507Z,69.21
2022-10-01T19:01:09.201Z,68.64
2022-10-01T19:06:32.891Z,69.29
2022-10-01T19:11:46.826Z,68.89
2022-10-01T19:17:01.885Z,68.51
2022-10-01T19:22:18.897Z,68.36
2022-10-01T19:27:39.679Z,68.29
2022-10-01T19:32:51.041Z,68.29
2022-10-01T19:37:58.813Z,68.06
2022-10-01T19:43:08.877Z,67.92
2022-10-01T19:48:20.419Z,68.15
2022-10-01T19:53:28.578Z,67.96
2022-10-01T19:58:34.284Z,67.64
2022-10-01T20:03:42.065Z,67.51
2022-10-01T20:08:52.766Z,66.92
2022-10-01T20:14:37.311Z,67.79
2022-10-01T20:19:47.498Z,67.71
2022-10-01T20:25:01.356Z,67.98
2022-10-01T20:30:08.889Z,68.19
2022-10-01T20:35:26.942Z,69.19
2022-10-01T20:40:35.600Z,69.89
2022-10-01T20:45:41.542Z,70.32
2022-10-01T20:50:50.633Z,70.56
2022-10-01T20:55:58.040Z,70.63
2022-10-01T21:01:05.493Z,70.66
2022-10-01T21:06:15.117Z,69.98
2022-10-01T21:11:26.088Z,69.88
2022-10-01T21:16:55.488Z,69.67
2022-10-01T21:22:10.055Z,69.01
2022-10-01T21:27:24.155Z,69.46
2022-10-01T21:32:39.904Z,68.99
2022-10-01T21:38:00.645Z,68.59
2022-10-01T21:43:13.624Z,68.68
2022-10-01T21:48:32.654Z,69.34
2022-10-01T21:54:09.767Z,68.55
2022-10-01T21:59:28.729Z,68.28
2022-10-01T22:04:41.454Z,68.09
2022-10-01T22:09:59.117Z,67.04
2022-10-01T22:15:09.526Z,66.22
2022-10-01T22:20:15.115Z,63.56
2022-10-01T22:25:19.612Z,63.10
2022-10-01T22:30:28.888Z,62.90
2022-10-01T22:35:37.025Z,63.44
2022-10-01T22:40:46.035Z,62.19
2022-10-01T22:46:11.435Z,60.94
2022-10-01T22:51:30.666Z,61.44
2022-10-01T22:56:42.420Z,61.73
2022-10-01T23:01:58.338Z,61.65
2022-10-01T23:07:13.289Z,61.15
2022-10-01T23:12:25.368Z,62.11
2022-10-01T23:17:38.510Z,62.72
2022-10-01T23:23:07.458Z,65.38
2022-10-01T23:28:20.336Z,70.27
2022-10-01T23:33:49.140Z,75.96
2022-10-01T23:39:26.709Z,80.52
2022-10-01T23:44:38.305Z,82.54
2022-10-01T23:49:45.808Z,82.98
2022-10-01T23:54:52.972Z,84.00
